Hobart, OK (73651)

3:56 AM CDT on September 04, 2015 (GMT -0500)
Hobart OK | | Change Station
CLOSE
Current Station
Personal Weather Station
Location: Hobart, OK
Elevation: 1572 ft
Nearby Weather Stations

Elev 1572 ft 35.03 °N, 99.10 °W | Updated 7 minutes ago

Clear
Clear
73.9 °F
Feels Like 76 °F
N
2.7
Wind Variable Wind from South

Today
High -- | Low -- °F
--% Chance of Precip.
Yesterday
High -- | Low -- °F
Precip. -- in
7:11 AM 7:59 PM
Waning Gibbous, 61% visible
Pressure 29.84 in
Visibility 10.0 miles
Clouds Clear
Heat Index 76 °F
Dew Point 64 °F
Humidity 70%
Rainfall 0.00 in
Snow Depth Not available.
UV 0 out of 12
Pollen 10.10 out of 12
Air Quality Not available.
Flu Activity Not available.
METAR KHBR 040853Z AUTO 17011KT 10SM CLR 24/17 A2991 RMK AO2 SLP105 T02440172 57000
Pressure 29.84 in
Visibility 10.0 miles
Clouds Clear
Heat Index 76 °F
Dew Point 64 °F
Humidity 70%
Rainfall 0.00 in
Snow Depth Not available.
UV 0 out of 12
Pollen 10.10 out of 12
Air Quality Not available.
Flu Activity Not available.
METAR KHBR 040853Z AUTO 17011KT 10SM CLR 24/17 A2991 RMK AO2 SLP105 T02440172 57000

10-Day Weather Forecast

×

Almanac

Astronomy

Sep. 04, 2015 Rise Set
Actual Time
Civil Twilight
Nautical Twilight
Astronomical Twilight
Moon
Length of Visible Light
Length of Day
Tomorrow will be .
, % of the Moon is Illuminated

Today's Extremes

State Highs State Lows

Community

WunderPhotos

Upload Photos

1,852,141 photos uploaded!

WunderBlogs® & News

Nearby

Air Quality

  Air Quality AQ Index Pollutant
Not available.

Snow Depth

Station Depth Elevation

Earthquake Activity

City Distance Mag. Time & Date
Minimum magnitude displayed is 2.5.

Coastal Water Temperatures

Place Temperature

Stations

Nearby Weather Stations

Station Location Temp. Windchill Dew Point Humidity Wind Precip. Elev Updated Type